Time,TemperatureF,DewpointF,PressureIn,WindDirection,WindDirectionDegrees,WindSpeedMPH,WindSpeedGustMPH,Humidity,HourlyPrecipIn,Conditions,Clouds,dailyrainin,SolarRadiationWatts/m^2,SoftwareType,DateUTC
2013-01-03 00:02:00,18.0,11.0,-100.00,SW,221,4.0,7.0,75,0.00,,,0.00,0.000000,,2013-01-03 06:02:00,
2013-01-03 00:12:00,18.0,12.0,-100.00,WSW,245,4.0,8.0,76,0.00,,,0.00,0.000000,,2013-01-03 06:12:00,
2013-01-03 00:33:00,18.0,12.0,-100.00,WSW,245,4.0,8.0,76,0.00,,,0.00,0.000000,,2013-01-03 06:33:00,
2013-01-03 00:42:00,18.0,12.0,-100.00,WSW,245,4.0,8.0,76,0.00,,,0.00,0.000000,,2013-01-03 06:42:00,
2013-01-03 00:53:00,18.0,12.0,-100.00,WSW,245,4.0,8.0,76,0.00,,,0.00,0.000000,,2013-01-03 06:53:00,
2013-01-03 01:02:00,18.0,12.0,-100.00,WSW,245,4.0,8.0,76,0.00,,,0.00,0.000000,,2013-01-03 07:02:00,
2013-01-03 01:12:00,18.0,12.0,-100.00,WSW,250,4.0,6.0,78,0.00,,,0.00,0.000000,,2013-01-03 07:12:00,
2013-01-03 01:33:00,18.0,12.0,-100.00,WSW,250,4.0,6.0,78,0.00,,,0.00,0.000000,,2013-01-03 07:33:00,
2013-01-03 01:43:00,18.0,12.0,-100.00,WSW,250,4.0,6.0,78,0.00,,,0.00,0.000000,,2013-01-03 07:43:00,
2013-01-03 01:53:00,18.0,12.0,-100.00,WSW,250,4.0,6.0,78,0.00,,,0.00,0.000000,,2013-01-03 07:53:00,
2013-01-03 02:02:00,18.0,12.0,-100.00,WSW,250,4.0,6.0,78,0.00,,,0.00,0.000000,,2013-01-03 08:02:00,
2013-01-03 02:12:00,18.0,12.0,-100.00,West,271,5.0,12.0,78,0.00,,,0.00,0.000000,,2013-01-03 08:12:00,
2013-01-03 02:33:00,18.0,12.0,-100.00,West,271,5.0,12.0,78,0.00,,,0.00,0.000000,,2013-01-03 08:33:00,
2013-01-03 02:43:00,18.0,12.0,-100.00,West,271,5.0,12.0,78,0.00,,,0.00,0.000000,,2013-01-03 08:43:00,
2013-01-03 02:53:00,18.0,12.0,-100.00,West,271,5.0,12.0,78,0.00,,,0.00,0.000000,,2013-01-03 08:53:00,
2013-01-03 03:02:00,18.0,12.0,-100.00,West,271,5.0,12.0,78,0.00,,,0.00,0.000000,,2013-01-03 09:02:00,
2013-01-03 03:12:00,18.0,13.0,-100.00,West,263,5.0,10.0,80,0.00,,,0.00,0.000000,,2013-01-03 09:12:00,
2013-01-03 03:34:00,18.0,13.0,-100.00,West,263,5.0,10.0,80,0.00,,,0.00,0.000000,,2013-01-03 09:34:00,
2013-01-03 03:43:00,18.0,13.0,-100.00,West,263,5.0,10.0,80,0.00,,,0.00,0.000000,,2013-01-03 09:43:00,
2013-01-03 03:53:00,18.0,13.0,-100.00,West,263,5.0,10.0,80,0.00,,,0.00,0.000000,,2013-01-03 09:53:00,
2013-01-03 04:02:00,18.0,13.0,-100.00,West,263,5.0,10.0,80,0.00,,,0.00,0.000000,,2013-01-03 10:02:00,
2013-01-03 04:12:00,18.0,13.0,-100.00,WSW,248,4.0,10.0,80,0.00,,,0.00,0.000000,,2013-01-03 10:12:00,
2013-01-03 04:33:00,18.0,13.0,-100.00,WSW,248,4.0,10.0,80,0.00,,,0.00,0.000000,,2013-01-03 10:33:00,
2013-01-03 04:43:00,18.0,13.0,-100.00,WSW,248,4.0,10.0,80,0.00,,,0.00,0.000000,,2013-01-03 10:43:00,
2013-01-03 04:53:00,18.0,13.0,-100.00,WSW,248,4.0,10.0,80,0.00,,,0.00,0.000000,,2013-01-03 10:53:00,
2013-01-03 05:02:00,18.0,13.0,-100.00,WSW,248,4.0,10.0,80,0.00,,,0.00,0.000000,,2013-01-03 11:02:00,
2013-01-03 05:12:00,18.0,13.0,-100.00,West,275,7.0,12.0,81,0.00,,,0.00,0.000000,,2013-01-03 11:12:00,
2013-01-03 05:33:00,18.0,13.0,-100.00,West,275,7.0,12.0,81,0.00,,,0.00,0.000000,,2013-01-03 11:33:00,
2013-01-03 05:43:00,18.0,13.0,-100.00,West,275,7.0,12.0,81,0.00,,,0.00,0.000000,,2013-01-03 11:43:00,
2013-01-03 05:53:00,18.0,13.0,-100.00,West,275,7.0,12.0,81,0.00,,,0.00,0.000000,,2013-01-03 11:53:00,
2013-01-03 06:03:00,18.0,13.0,-100.00,West,275,7.0,12.0,81,0.00,,,0.00,0.000000,,2013-01-03 12:03:00,
2013-01-03 06:12:00,18.0,13.0,-100.00,WNW,285,7.0,15.0,81,0.00,,,0.00,0.000000,,2013-01-03 12:12:00,
2013-01-03 06:43:00,18.0,13.0,-100.00,WNW,285,7.0,15.0,81,0.00,,,0.00,0.000000,,2013-01-03 12:43:00,
2013-01-03 06:53:00,18.0,13.0,-100.00,WNW,285,7.0,15.0,81,0.00,,,0.00,0.000000,,2013-01-03 12:53:00,
2013-01-03 07:02:00,18.0,13.0,-100.00,WNW,285,7.0,15.0,81,0.00,,,0.00,0.000000,,2013-01-03 13:02:00,
2013-01-03 07:12:00,18.0,13.0,-100.00,WNW,301,6.0,11.0,82,0.00,,,0.00,0.000000,,2013-01-03 13:12:00,
2013-01-03 07:33:00,18.0,13.0,-100.00,WNW,301,6.0,11.0,82,0.00,,,0.00,0.000000,,2013-01-03 13:33:00,
2013-01-03 07:43:00,18.0,13.0,-100.00,WNW,301,6.0,11.0,82,0.00,,,0.00,0.000000,,2013-01-03 13:43:00,
2013-01-03 07:53:00,18.0,13.0,-100.00,WNW,301,6.0,11.0,82,0.00,,,0.00,0.000000,,2013-01-03 13:53:00,
2013-01-03 08:03:00,18.0,13.0,-100.00,WNW,301,6.0,11.0,82,0.00,,,0.00,0.000000,,2013-01-03 14:03:00,
2013-01-03 08:12:00,19.0,15.0,-100.00,WNW,284,6.0,12.0,83,0.00,,,0.00,5.000000,,2013-01-03 14:12:00,
2013-01-03 08:33:00,19.0,15.0,-100.00,WNW,284,6.0,12.0,83,0.00,,,0.00,5.000000,,2013-01-03 14:33:00,
2013-01-03 08:43:00,19.0,15.0,-100.00,WNW,284,6.0,12.0,83,0.00,,,0.00,5.000000,,2013-01-03 14:43:00,
2013-01-03 08:53:00,19.0,15.0,-100.00,WNW,284,6.0,12.0,83,0.00,,,0.00,5.000000,,2013-01-03 14:53:00,
2013-01-03 09:03:00,19.0,15.0,-100.00,WNW,284,6.0,12.0,83,0.00,,,0.00,5.000000,,2013-01-03 15:03:00,
2013-01-03 09:12:00,20.0,15.0,-100.00,WNW,286,6.0,10.0,82,0.00,,,0.00,40.000000,,2013-01-03 15:12:00,
2013-01-03 09:34:00,20.0,15.0,-100.00,WNW,286,6.0,10.0,82,0.00,,,0.00,40.000000,,2013-01-03 15:34:00,
2013-01-03 09:43:00,20.0,15.0,-100.00,WNW,286,6.0,10.0,82,0.00,,,0.00,40.000000,,2013-01-03 15:43:00,
2013-01-03 09:53:00,20.0,15.0,-100.00,WNW,286,6.0,10.0,82,0.00,,,0.00,40.000000,,2013-01-03 15:53:00,
2013-01-03 10:03:00,20.0,15.0,-100.00,WNW,286,6.0,10.0,82,0.00,,,0.00,40.000000,,2013-01-03 16:03:00,
2013-01-03 10:12:00,21.0,16.0,-100.00,WNW,284,7.0,12.0,80,0.00,,,0.00,96.000000,,2013-01-03 16:12:00,
2013-01-03 10:34:00,21.0,16.0,-100.00,WNW,284,7.0,12.0,80,0.00,,,0.00,96.000000,,2013-01-03 16:34:00,
2013-01-03 10:43:00,21.0,16.0,-100.00,WNW,284,7.0,12.0,80,0.00,,,0.00,96.000000,,2013-01-03 16:43:00,
2013-01-03 10:53:00,21.0,16.0,-100.00,WNW,284,7.0,12.0,80,0.00,,,0.00,96.000000,,2013-01-03 16:53:00,
2013-01-03 11:03:00,21.0,16.0,-100.00,WNW,284,7.0,12.0,80,0.00,,,0.00,96.000000,,2013-01-03 17:03:00,
2013-01-03 11:12:00,22.0,16.0,-100.00,WNW,293,9.0,14.0,78,0.00,,,0.00,141.000000,,2013-01-03 17:12:00,
2013-01-03 11:33:00,22.0,16.0,-100.00,WNW,293,9.0,14.0,78,0.00,,,0.00,141.000000,,2013-01-03 17:33:00,
2013-01-03 11:43:00,22.0,16.0,-100.00,WNW,293,9.0,14.0,78,0.00,,,0.00,141.000000,,2013-01-03 17:43:00,
2013-01-03 11:53:00,22.0,16.0,-100.00,WNW,293,9.0,14.0,78,0.00,,,0.00,141.000000,,2013-01-03 17:53:00,
2013-01-03 12:03:00,22.0,16.0,-100.00,WNW,293,9.0,14.0,78,0.00,,,0.00,141.000000,,2013-01-03 18:03:00,
2013-01-03 12:12:00,24.0,17.0,-100.00,WNW,285,7.0,14.0,75,0.00,,,0.00,195.000000,,2013-01-03 18:12:00,
2013-01-03 12:33:00,24.0,17.0,-100.00,WNW,285,7.0,14.0,75,0.00,,,0.00,195.000000,,2013-01-03 18:33:00,
2013-01-03 12:43:00,24.0,17.0,-100.00,WNW,285,7.0,14.0,75,0.00,,,0.00,195.000000,,2013-01-03 18:43:00,
2013-01-03 12:53:00,24.0,17.0,-100.00,WNW,285,7.0,14.0,75,0.00,,,0.00,195.000000,,2013-01-03 18:53:00,
2013-01-03 13:03:00,24.0,17.0,-100.00,WNW,285,7.0,14.0,75,0.00,,,0.00,195.000000,,2013-01-03 19:03:00,
2013-01-03 13:12:00,24.0,17.0,-100.00,WNW,298,11.0,17.0,74,0.00,,,0.00,211.000000,,2013-01-03 19:12:00,
2013-01-03 13:56:00,24.0,17.0,-100.00,WNW,298,11.0,17.0,74,0.00,,,0.00,211.000000,,2013-01-03 19:56:00,
2013-01-03 14:03:00,24.0,17.0,-100.00,WNW,298,11.0,17.0,74,0.00,,,0.00,211.000000,,2013-01-03 20:03:00,
2013-01-03 14:12:00,24.0,18.0,-100.00,WNW,283,9.0,16.0,76,0.00,,,0.00,116.000000,,2013-01-03 20:12:00,
2013-01-03 14:33:00,24.0,18.0,-100.00,WNW,283,9.0,16.0,76,0.00,,,0.00,116.000000,,2013-01-03 20:33:00,
2013-01-03 14:43:00,24.0,18.0,-100.00,WNW,283,9.0,16.0,76,0.00,,,0.00,116.000000,,2013-01-03 20:43:00,
2013-01-03 14:53:00,24.0,18.0,-100.00,WNW,283,9.0,16.0,76,0.00,,,0.00,116.000000,,2013-01-03 20:53:00,
2013-01-03 15:02:00,24.0,18.0,-100.00,WNW,283,9.0,16.0,76,0.00,,,0.00,116.000000,,2013-01-03 21:02:00,
2013-01-03 15:12:00,24.0,18.0,-100.00,West,279,10.0,16.0,76,0.00,,,0.00,67.000000,,2013-01-03 21:12:00,
2013-01-03 15:38:00,24.0,18.0,-100.00,West,279,10.0,16.0,76,0.00,,,0.00,67.000000,,2013-01-03 21:38:00,
2013-01-03 15:50:00,24.0,18.0,-100.00,West,279,10.0,16.0,76,0.00,,,0.00,67.000000,,2013-01-03 21:50:00,
2013-01-03 16:03:00,24.0,18.0,-100.00,West,279,10.0,16.0,76,0.00,,,0.00,67.000000,,2013-01-03 22:03:00,
2013-01-03 16:12:00,23.0,17.0,-100.00,West,274,7.0,15.0,78,0.00,,,0.00,34.000000,,2013-01-03 22:12:00,
2013-01-03 16:33:00,23.0,17.0,-100.00,West,274,7.0,15.0,78,0.00,,,0.00,34.000000,,2013-01-03 22:33:00,
2013-01-03 16:43:00,23.0,17.0,-100.00,West,274,7.0,15.0,78,0.00,,,0.00,34.000000,,2013-01-03 22:43:00,
2013-01-03 16:52:00,23.0,17.0,-100.00,West,274,7.0,15.0,78,0.00,,,0.00,34.000000,,2013-01-03 22:52:00,
2013-01-03 17:02:00,23.0,17.0,-100.00,West,274,7.0,15.0,78,0.00,,,0.00,34.000000,,2013-01-03 23:02:00,
2013-01-03 17:12:00,20.0,15.0,-100.00,West,268,6.0,15.0,79,0.00,,,0.00,3.000000,,2013-01-03 23:12:00,
2013-01-03 17:43:00,20.0,15.0,-100.00,West,268,6.0,15.0,79,0.00,,,0.00,3.000000,,2013-01-03 23:43:00,
2013-01-03 17:53:00,20.0,15.0,-100.00,West,268,6.0,15.0,79,0.00,,,0.00,3.000000,,2013-01-03 23:53:00,
2013-01-03 18:03:00,20.0,15.0,-100.00,West,268,6.0,15.0,79,0.00,,,0.00,3.000000,,2013-01-04 00:03:00,
2013-01-03 18:12:00,20.0,15.0,-100.00,WSW,245,5.0,12.0,80,0.00,,,0.00,0.000000,,2013-01-04 00:12:00,
2013-01-03 18:33:00,20.0,15.0,-100.00,WSW,245,5.0,12.0,80,0.00,,,0.00,0.000000,,2013-01-04 00:33:00,
2013-01-03 18:42:00,20.0,15.0,-100.00,WSW,245,5.0,12.0,80,0.00,,,0.00,0.000000,,2013-01-04 00:42:00,
2013-01-03 18:53:00,20.0,15.0,-100.00,WSW,245,5.0,12.0,80,0.00,,,0.00,0.000000,,2013-01-04 00:53:00,
2013-01-03 19:02:00,20.0,15.0,-100.00,WSW,245,5.0,12.0,80,0.00,,,0.00,0.000000,,2013-01-04 01:02:00,
2013-01-03 19:12:00,17.0,12.0,-100.00,WSW,247,5.0,12.0,80,0.00,,,0.00,0.000000,,2013-01-04 01:12:00,
2013-01-03 19:33:00,17.0,12.0,-100.00,WSW,247,5.0,12.0,80,0.00,,,0.00,0.000000,,2013-01-04 01:33:00,
2013-01-03 19:42:00,17.0,12.0,-100.00,WSW,247,5.0,12.0,80,0.00,,,0.00,0.000000,,2013-01-04 01:42:00,
2013-01-03 19:52:00,17.0,12.0,-100.00,WSW,247,5.0,12.0,80,0.00,,,0.00,0.000000,,2013-01-04 01:52:00,
2013-01-03 20:02:00,17.0,12.0,-100.00,WSW,247,5.0,12.0,80,0.00,,,0.00,0.000000,,2013-01-04 02:02:00,
2013-01-03 20:12:00,16.0,10.0,-100.00,West,266,9.0,14.0,78,0.00,,,0.00,0.000000,,2013-01-04 02:12:00,
2013-01-03 20:33:00,16.0,10.0,-100.00,West,266,9.0,14.0,78,0.00,,,0.00,0.000000,,2013-01-04 02:33:00,
2013-01-03 20:42:00,16.0,10.0,-100.00,West,266,9.0,14.0,78,0.00,,,0.00,0.000000,,2013-01-04 02:42:00,
2013-01-03 20:53:00,16.0,10.0,-100.00,West,266,9.0,14.0,78,0.00,,,0.00,0.000000,,2013-01-04 02:53:00,
2013-01-03 21:02:00,16.0,10.0,-100.00,West,266,9.0,14.0,78,0.00,,,0.00,0.000000,,2013-01-04 03:02:00,
2013-01-03 21:12:00,15.0,9.0,-100.00,West,261,9.0,17.0,75,0.00,,,0.00,0.000000,,2013-01-04 03:12:00,
2013-01-03 21:33:00,15.0,9.0,-100.00,West,261,9.0,17.0,75,0.00,,,0.00,0.000000,,2013-01-04 03:33:00,
2013-01-03 21:43:00,15.0,9.0,-100.00,West,261,9.0,17.0,75,0.00,,,0.00,0.000000,,2013-01-04 03:43:00,
2013-01-03 21:53:00,15.0,9.0,-100.00,West,261,9.0,17.0,75,0.00,,,0.00,0.000000,,2013-01-04 03:53:00,
2013-01-03 22:02:00,15.0,9.0,-100.00,West,261,9.0,17.0,75,0.00,,,0.00,0.000000,,2013-01-04 04:02:00,
2013-01-03 22:12:00,13.0,7.0,-100.00,WSW,238,6.0,15.0,76,0.00,,,0.00,0.000000,,2013-01-04 04:12:00,
2013-01-03 22:32:00,13.0,7.0,-100.00,WSW,238,6.0,15.0,76,0.00,,,0.00,0.000000,,2013-01-04 04:32:00,
2013-01-03 22:42:00,13.0,7.0,-100.00,WSW,238,6.0,15.0,76,0.00,,,0.00,0.000000,,2013-01-04 04:42:00,
2013-01-03 22:52:00,13.0,7.0,-100.00,WSW,238,6.0,15.0,76,0.00,,,0.00,0.000000,,2013-01-04 04:52:00,
2013-01-03 23:03:00,13.0,7.0,-100.00,WSW,238,6.0,15.0,76,0.00,,,0.00,0.000000,,2013-01-04 05:03:00,
2013-01-03 23:12:00,11.0,6.0,-100.00,WSW,245,6.0,13.0,78,0.00,,,0.00,0.000000,,2013-01-04 05:12:00,
2013-01-03 23:33:00,11.0,6.0,-100.00,WSW,245,6.0,13.0,78,0.00,,,0.00,0.000000,,2013-01-04 05:33:00,
2013-01-03 23:42:00,11.0,6.0,-100.00,WSW,245,6.0,13.0,78,0.00,,,0.00,0.000000,,2013-01-04 05:42:00,
2013-01-03 23:53:00,11.0,6.0,-100.00,WSW,245,6.0,13.0,78,0.00,,,0.00,0.000000,,2013-01-04 05:53:00,